Flight Track Log - Related Links

Times and Time Zones

All times are in EDT time to prevent confusion due to time zone crossing. See the UAL495 flight status page for this flight to view local times or setup timezone preferences in your user account.

Time Position Orientation Groundspeed Altitude Reporting Facility
EDT Latitude Longitude Course Direction KTS MPH feet Rate Location/Type
Sun 08:56:45 AM 33.9333 -118.4333 90° East 182 209 1,400  Level Southern California TRACON
Sun 08:57:21 AM 33.9222 -118.4700 250° West 223 257 2,500 2,289 Climbing Los Angeles Center
Sun 08:58:22 AM 33.8594 -118.5092 207° Southwest 256 295 5,100 2,727 Climbing Los Angeles Center
Sun 08:59:00 AM 33.7849 -118.6465 132° Southeast  Level FlightAware Approximate
Sun 08:59:22 AM 33.7861 -118.5164 185° South 276 318 8,000  Level Los Angeles Center
Sun 09:00:00 AM 33.7064 -118.5455 134° Southeast  Level FlightAware Approximate
Sun 09:00:22 AM 33.7081 -118.5183 181° South 288 331 10,700  Level Los Angeles Center
Sun 09:01:00 AM 33.6673 -118.4204 101° East  Level FlightAware Approximate
Sun 09:01:23 AM 33.6689 -118.4267 117° Southeast 326 375 12,200  Level Los Angeles Center
Sun 09:02:00 AM 33.6334 -118.2915 90° East  Level FlightAware Approximate
Sun 09:02:23 AM 33.6444 -118.3136 105° East 371 427 14,400  Level Los Angeles Center
Sun 09:03:23 AM 33.6511 -118.1894 86° East 388 447 16,500 2,033 Climbing Los Angeles Center
Sun 09:04:24 AM 33.7275 -118.1017 44° Northeast 396 456 18,500 2,182 Climbing Los Angeles Center
Sun 09:05:24 AM 33.8361 -118.0072 36° Northeast 405 466 20,900 2,200 Climbing Los Angeles Center
Sun 09:06:24 AM 33.9292 -117.9219 37° Northeast 417 480 22,900 1,934 Climbing Los Angeles Center
Sun 09:07:25 AM 34.0228 -117.8367 37° Northeast 422 486 24,800 1,785 Climbing Los Angeles Center
Sun 09:08:25 AM 34.1147 -117.7425 40° Northeast 432 497 26,500 1,537 Climbing Los Angeles Center
Sun 09:09:26 AM 34.1956 -117.6328 48° Northeast 440 506 27,900 1,339 Climbing Los Angeles Center
Sun 09:10:26 AM 34.2789 -117.5197 48° Northeast 447 514 29,200 1,450 Climbing Los Angeles Center
Sun 09:11:26 AM 34.3617 -117.4058 49° Northeast 451 519 30,800 1,438 Climbing Los Angeles Center
Sun 09:12:27 AM 34.4394 -117.3011 48° Northeast 453 521 32,100 1,339 Climbing Los Angeles Center
Sun 09:13:27 AM 34.5214 -117.1878 49° Northeast 452 520 33,500 1,240 Climbing Los Angeles Center
Sun 09:14:28 AM 34.6036 -117.0744 49° Northeast 451 519 34,600 902 Climbing Los Angeles Center
Sun 09:15:40 AM 34.6856 -116.9603 49° Northeast 452 520 35,500 857 Climbing Los Angeles Center
Sun 09:16:41 AM 34.7853 -116.8211 49° Northeast 456 525 36,500 744 Climbing Los Angeles Center
Sun 09:17:41 AM 34.8850 -116.6817 49° Northeast 456 525 37,000 248 Climbing Los Angeles Center
Sun 09:18:42 AM 34.9664 -116.5694 48° Northeast 447 514 37,000  Level Los Angeles Center
Sun 09:19:42 AM 35.0542 -116.4581 46° Northeast 456 525 37,000  Level Los Angeles Center
Sun 09:20:43 AM 35.1425 -116.3478 46° Northeast 457 526 37,000  Level Los Angeles Center
Sun 09:21:43 AM 35.2347 -116.2372 44° Northeast 464 534 37,000  Level Los Angeles Center
Sun 09:22:44 AM 35.3206 -116.1272 46° Northeast 453 521 37,000  Level Los Angeles Center
Sun 09:23:44 AM 35.4083 -116.0153 46° Northeast 455 524 37,000  Level Los Angeles Center
Sun 09:24:45 AM 35.4969 -115.9058 45° Northeast 456 525 37,000  Level Los Angeles Center
Sun 09:25:45 AM 35.5833 -115.7925 47° Northeast 444 511 37,000  Level Los Angeles Center
Sun 09:26:46 AM 35.6694 -115.6856 45° Northeast 441 507 37,000  Level Los Angeles Center
Sun 09:27:47 AM 35.7536 -115.5778 46° Northeast 440 506 37,000  Level Los Angeles Center
Sun 09:28:47 AM 35.8378 -115.4711 46° Northeast 438 504 37,000  Level Los Angeles Center
Sun 09:29:48 AM 35.9208 -115.3636 46° Northeast 436 502 37,000  Level Los Angeles Center
Sun 09:30:49 AM 36.0025 -115.2586 46° Northeast 429 494 37,000  Level Los Angeles Center
Sun 09:31:49 AM 36.0842 -115.1503 47° Northeast 432 497 37,000  Level Los Angeles Center
Sun 09:32:50 AM 36.1861 -115.0228 45° Northeast 436 502 37,000  Level Los Angeles Center
Sun 09:33:51 AM 36.2708 -114.9158 45° Northeast 437 503 37,000  Level Los Angeles Center
Sun 09:34:51 AM 36.3564 -114.8081 45° Northeast 440 506 37,000  Level Los Angeles Center
Sun 09:35:52 AM 36.4408 -114.6978 46° Northeast 441 507 37,000  Level Los Angeles Center
Sun 09:36:53 AM 36.5256 -114.5861 47° Northeast 444 511 37,000  Level Los Angeles Center
Sun 09:37:54 AM 36.6111 -114.4747 46° Northeast 445 512 37,000  Level Los Angeles Center
Sun 09:38:54 AM 36.6978 -114.3625 46° Northeast 449 517 37,000  Level Los Angeles Center
Sun 09:39:55 AM 36.7789 -114.2453 49° Northeast 448 516 37,000  Level Los Angeles Center
Sun 09:40:56 AM 36.8431 -114.1100 59° Northeast 450 518 37,000  Level Los Angeles Center
Sun 09:41:57 AM 36.9081 -113.9733 59° Northeast 456 525 37,000  Level Los Angeles Center
Sun 09:42:58 AM 36.9561 -113.8714 59° Northeast 456 525 37,000  Level Los Angeles Center
Sun 09:43:59 AM 37.0461 -113.6828 59° Northeast 452 520 37,000  Level Los Angeles Center
Sun 09:45:00 AM 37.1103 -113.5472 59° Northeast 453 521 37,000  Level Los Angeles Center
Sun 09:46:01 AM 37.1747 -113.4108 59° Northeast 455 524 37,000  Level Los Angeles Center
Sun 09:46:26 AM 37.2006 -113.3569 59° Northeast 455 524 37,000  Level Salt Lake Center
Sun 09:47:27 AM 37.2639 -113.2217 60° Northeast 453 521 37,000  Level Salt Lake Center
Sun 09:48:28 AM 37.3272 -113.0856 60° Northeast 454 522 37,000  Level Salt Lake Center
Sun 09:49:29 AM 37.3903 -112.9497 60° Northeast 454 522 37,000  Level Salt Lake Center
Sun 09:50:30 AM 37.4522 -112.8139 60° Northeast 456 525 37,000  Level Salt Lake Center
Sun 09:51:31 AM 37.5292 -112.6525 59° Northeast 459 528 37,000  Level Salt Lake Center
Sun 09:52:32 AM 37.5919 -112.5150 60° Northeast 458 527 37,000  Level Salt Lake Center
Sun 09:53:33 AM 37.6553 -112.3781 60° Northeast 457 526 37,000  Level Salt Lake Center
Sun 09:54:34 AM 37.7047 -112.2303 67° East 459 528 37,000  Level Salt Lake Center
Sun 09:55:35 AM 37.7319 -112.0725 78° East 462 532 37,000  Level Salt Lake Center
Sun 09:56:36 AM 37.7589 -111.9164 78° East 458 527 37,000  Level Salt Lake Center
Sun 09:57:37 AM 37.7872 -111.7589 77° East 460 529 37,000  Level Salt Lake Center
Sun 09:58:38 AM 37.8156 -111.6022 77° East 459 528 37,000  Level Salt Lake Center
Sun 09:59:39 AM 37.8442 -111.4467 77° East 456 525 37,000  Level Salt Lake Center
Sun 10:00:24 AM 37.8647 -111.3228 78° East 451 519 37,000  Level Denver Center
Sun 10:00:40 AM 37.8689 -111.2914 80° East 453 521 37,000  Level Salt Lake Center
Sun 10:01:41 AM 37.8967 -111.1403 77° East 445 512 37,000  Level Salt Lake Center
Sun 10:02:26 AM 37.9172 -111.0192 78° East 442 509 37,000  Level Denver Center
Sun 10:03:28 AM 37.9444 -110.8669 77° East 443 510 37,000  Level Denver Center
Sun 10:04:29 AM 37.9711 -110.7128 78° East 448 516 37,000  Level Denver Center
Sun 10:05:30 AM 37.9975 -110.5481 78° East 445 512 37,000  Level Denver Center
Sun 10:06:31 AM 38.0267 -110.3739 78° East 449 517 37,000  Level Denver Center
Sun 10:07:32 AM 38.0497 -110.2228 79° East 454 522 37,000  Level Denver Center
Sun 10:08:34 AM 38.0753 -110.0742 78° East 453 521 37,000  Level Denver Center
Sun 10:09:35 AM 38.1033 -109.9014 78° East 450 518 37,000  Level Denver Center
Sun 10:10:36 AM 38.1269 -109.7525 79° East 450 518 37,000  Level Denver Center
Sun 10:11:38 AM 38.1556 -109.5792 78° East 451 519 37,000  Level Denver Center
Sun 10:12:39 AM 38.1789 -109.4306 79° East 449 517 37,000  Level Denver Center
Sun 10:13:41 AM 38.2061 -109.2542 79° East 454 522 37,000  Level Denver Center
Sun 10:14:42 AM 38.2286 -109.1042 79° East 453 521 37,000  Level Denver Center
Sun 10:15:44 AM 38.2514 -108.9561 79° East 446 513 37,000  Level Denver Center
Sun 10:16:45 AM 38.2783 -108.7817 79° East 449 517 37,000  Level Denver Center
Sun 10:17:47 AM 38.3011 -108.6317 79° East 452 520 37,000  Level Denver Center
Sun 10:18:48 AM 38.3267 -108.4569 79° East 449 517 37,000  Level Denver Center
Sun 10:19:50 AM 38.3494 -108.3083 79° East 448 516 37,000  Level Denver Center
Sun 10:20:51 AM 38.3747 -108.1358 79° East 446 513 37,000  Level Denver Center
Sun 10:21:53 AM 38.3958 -107.9864 80° East 447 514 37,000  Level Denver Center
Sun 10:22:55 AM 38.4172 -107.8381 80° East 447 514 37,000  Level Denver Center
Sun 10:23:56 AM 38.4414 -107.6661 80° East 443 510 37,000 -98 Level Denver Center
Sun 10:24:58 AM 38.4819 -107.5256 70° East 447 514 36,800 -871 Descending Denver Center
Sun 10:26:00 AM 38.5503 -107.3736 60° Northeast 442 509 35,200 -1,500 Descending Denver Center
Sun 10:27:02 AM 38.6100 -107.2414 60° Northeast 448 516 33,700 -1,415 Descending Denver Center
Sun 10:28:03 AM 38.6717 -107.1003 61° Northeast 464 534 32,300 -1,415 Descending Denver Center
Sun 10:29:05 AM 38.7356 -106.9561 60° Northeast 465 535 30,800 -1,548 Descending Denver Center
Sun 10:30:07 AM 38.8136 -106.7800 60° Northeast 474 545 29,100 -1,403 Descending Denver Center
Sun 10:31:09 AM 38.8783 -106.6314 61° Northeast 478 550 27,900 -1,016 Descending Denver Center
Sun 10:32:11 AM 38.9422 -106.4964 59° Northeast 475 547 27,000 -488 Descending Denver Center
Sun 10:33:12 AM 39.0181 -106.3322 59° Northeast 480 552 26,900 -634 Descending Denver Center
Sun 10:34:14 AM 39.0806 -106.1939 60° Northeast 473 544 25,700 -1,210 Descending Denver Center
Sun 10:35:16 AM 39.1447 -106.0486 60° Northeast 457 526 24,400 -1,210 Descending Denver Center
Sun 10:36:18 AM 39.2081 -105.9064 60° Northeast 454 522 23,200 -1,210 Descending Denver Center
Sun 10:37:20 AM 39.2783 -105.7461 60° Northeast 439 505 21,900 -1,113 Descending Denver Center
Sun 10:38:22 AM 39.3344 -105.6211 60° Northeast 403 464 20,900 -677 Descending Denver Center
Sun 10:39:24 AM 39.3864 -105.5019 61° Northeast 381 438 20,500 -774 Descending Denver Center
Sun 10:40:26 AM 39.4447 -105.3872 57° Northeast 349 402 19,300 -1,210 Descending Denver Center
Sun 10:41:28 AM 39.4950 -105.2922 56° Northeast 328 377 18,000 -1,113 Descending Denver Center
Sun 10:42:30 AM 39.5461 -105.1942 56° Northeast 326 375 17,000 -919 Descending Denver Center
Sun 10:43:32 AM 39.5992 -105.0914 56° Northeast 317 365 16,100 -871 Descending Denver Center
Sun 10:44:34 AM 39.6483 -104.9983 56° Northeast 313 360 15,200 -968 Descending Denver Center
Sun 10:45:36 AM 39.7017 -104.9008 55° Northeast 316 364 14,100 -1,210 Descending Denver Center
Sun 10:46:38 AM 39.7478 -104.8144 55° Northeast 283 326 12,700 -1,210 Descending Denver Center
Sun 10:47:40 AM 39.7567 -104.6969 84° East 306 352 11,600 -829 Descending Denver Center
Sun 10:48:41 AM 39.7536 -104.5942 92° East 274 315 11,000 -390 Descending Denver Center
Sun 10:49:43 AM 39.7483 -104.4908 94° East 266 306 10,800 -629 Descending Denver Center
Sun 10:50:45 AM 39.7656 -104.4086 75° East 250 288 9,700 -1,113 Descending Denver Center
Sun 10:51:47 AM 39.8283 -104.4047 North 241 277 8,500 -1,016 Descending Denver Center
Sun 10:52:49 AM 39.8639 -104.4622 309° West 188 216 7,600 -871 Descending Denver Center

Login

Don't have an account? Register now (free) for customized features, flight alerts, and more!